Time;durP1;ratioP1;P1;durP2;ratioP2;P2;SDS_P1;SDS_P2;PMS_P1;PMS_P2;Temp;Humidity;BMP_temperature;BMP_pressure;BME280_temperature;BME280_humidity;BME280_pressure;Samples;Min_cycle;Max_cycle;Signal;HPM_P1;HPM_P2
2024/01/09 00:00:20;;;;;;;4.30;3.90;;;12.40;39.20;;;;;;5091761;28;20277;-62
2024/01/09 00:02:47;;;;;;;4.35;3.60;;;12.50;39.30;;;;;;5092465;28;20221;-61
2024/01/09 00:05:15;;;;;;;6.05;3.95;;;12.40;39.20;;;;;;5092174;28;20290;-61
2024/01/09 00:07:42;;;;;;;4.47;3.70;;;12.40;39.20;;;;;;5092386;28;20210;-61
2024/01/09 00:10:09;;;;;;;5.03;4.32;;;12.40;39.20;;;;;;5092338;28;20272;-61
2024/01/09 00:12:36;;;;;;;5.55;4.10;;;12.50;39.30;;;;;;5091731;28;20751;-61
2024/01/09 00:15:06;;;;;;;4.95;3.92;;;12.50;39.20;;;;;;5091665;28;20228;-61
2024/01/09 00:17:33;;;;;;;5.95;3.45;;;12.40;39.20;;;;;;5092215;28;20229;-61
2024/01/09 00:19:59;;;;;;;5.40;4.10;;;12.40;39.20;;;;;;5091855;28;20186;-61
2024/01/09 00:22:28;;;;;;;5.32;4.25;;;12.40;39.20;;;;;;5092227;28;20304;-61
2024/01/09 00:24:55;;;;;;;5.40;3.67;;;12.40;39.20;;;;;;5091957;28;20717;-62
2024/01/09 00:27:21;;;;;;;6.63;4.25;;;12.40;39.10;;;;;;5091533;28;20667;-62
2024/01/09 00:29:48;;;;;;;5.25;3.90;;;12.40;39.10;;;;;;5091710;28;20297;-61
2024/01/09 00:32:15;;;;;;;6.90;3.72;;;12.40;39.10;;;;;;5093174;28;20676;-62
2024/01/09 00:34:42;;;;;;;5.55;4.30;;;12.40;39.10;;;;;;5095818;28;20196;-61
2024/01/09 00:37:09;;;;;;;6.18;4.60;;;12.40;39.10;;;;;;5096045;28;20309;-61
2024/01/09 00:39:37;;;;;;;6.20;4.03;;;12.40;39.10;;;;;;5096148;28;20182;-61
2024/01/09 00:42:04;;;;;;;4.97;4.05;;;12.40;39.10;;;;;;5095771;28;20285;-61
2024/01/09 00:44:31;;;;;;;6.78;3.80;;;12.40;39.10;;;;;;5095578;28;20301;-61
2024/01/09 00:46:58;;;;;;;5.22;4.20;;;12.40;39.20;;;;;;5096097;28;20265;-61
2024/01/09 00:49:25;;;;;;;6.25;4.43;;;12.40;39.10;;;;;;5095034;28;20775;-62
2024/01/09 00:51:52;;;;;;;4.47;3.92;;;12.40;39.10;;;;;;5096157;28;20270;-61
2024/01/09 00:54:19;;;;;;;5.68;3.88;;;12.40;39.10;;;;;;5096033;28;20312;-61
2024/01/09 00:56:48;;;;;;;4.25;3.63;;;12.40;39.10;;;;;;5095086;28;20764;-61
2024/01/09 00:59:15;;;;;;;5.43;4.35;;;12.40;39.10;;;;;;5095026;28;20221;-62
2024/01/09 01:01:42;;;;;;;5.80;4.38;;;12.40;39.10;;;;;;5095703;28;20273;-61
2024/01/09 01:04:09;;;;;;;4.63;4.15;;;12.40;39.10;;;;;;5095235;28;20408;-61
2024/01/09 01:06:41;;;;;;;5.88;4.40;;;12.40;39.10;;;;;;5095336;28;20188;-61
2024/01/09 01:09:08;;;;;;;4.20;3.80;;;12.40;39.20;;;;;;5095767;28;20316;-61
2024/01/09 01:11:35;;;;;;;5.28;4.13;;;12.40;39.10;;;;;;5094898;28;20187;-61
2024/01/09 01:14:03;;;;;;;4.38;3.97;;;12.40;39.10;;;;;;5094928;28;20317;-61
2024/01/09 01:16:30;;;;;;;4.63;4.22;;;12.40;39.10;;;;;;5095402;28;20312;-61
2024/01/09 01:18:57;;;;;;;4.95;4.07;;;12.40;39.10;;;;;;5094623;28;20308;-61
2024/01/09 01:21:24;;;;;;;5.57;4.50;;;12.40;39.10;;;;;;5095053;28;20277;-58
2024/01/09 01:23:51;;;;;;;5.22;4.32;;;12.40;39.10;;;;;;5095394;28;20222;-61
2024/01/09 01:26:18;;;;;;;6.20;4.25;;;12.40;39.10;;;;;;5094618;28;20740;-60
2024/01/09 01:28:44;;;;;;;5.47;4.13;;;12.40;39.10;;;;;;5094405;28;20304;-61
2024/01/09 01:31:13;;;;;;;5.43;4.47;;;12.40;39.10;;;;;;5095172;28;20277;-61
2024/01/09 01:33:40;;;;;;;5.97;4.43;;;12.40;39.10;;;;;;5094862;28;20228;-61
2024/01/09 01:36:07;;;;;;;6.88;4.90;;;12.40;39.10;;;;;;5094974;28;20217;-61
2024/01/09 01:38:34;;;;;;;4.78;4.03;;;12.40;39.10;;;;;;5094773;28;20218;-62
2024/01/09 01:41:00;;;;;;;4.65;4.07;;;12.40;39.10;;;;;;5094567;28;20189;-61
2024/01/09 01:43:27;;;;;;;5.78;4.35;;;12.40;39.10;;;;;;5093802;28;20304;-61
2024/01/09 01:45:55;;;;;;;5.53;4.13;;;12.40;39.10;;;;;;5094557;28;20225;-61
2024/01/09 01:48:24;;;;;;;5.40;4.25;;;12.30;39.10;;;;;;5093967;28;20825;-61
2024/01/09 01:50:51;;;;;;;5.07;4.30;;;12.40;39.10;;;;;;5095062;28;20289;-61
2024/01/09 01:53:18;;;;;;;5.75;4.05;;;12.30;39.10;;;;;;5094818;28;20214;-61
2024/01/09 01:55:46;;;;;;;6.72;4.20;;;12.40;39.10;;;;;;5094400;28;20282;-62
2024/01/09 01:58:14;;;;;;;4.93;4.10;;;12.30;39.10;;;;;;5094049;28;20222;-61
2024/01/09 02:00:41;;;;;;;5.15;4.07;;;12.40;39.10;;;;;;5094592;28;20277;-61
2024/01/09 02:03:11;;;;;;;5.65;4.25;;;12.40;39.20;;;;;;5094265;28;20710;-61
2024/01/09 02:05:40;;;;;;;6.30;4.28;;;12.30;39.10;;;;;;5094492;28;20193;-61
2024/01/09 02:08:08;;;;;;;5.00;4.18;;;12.30;39.10;;;;;;5094176;28;20703;-61
2024/01/09 02:10:34;;;;;;;6.03;4.40;;;12.30;39.10;;;;;;5094107;28;20217;-62
2024/01/09 02:13:01;;;;;;;5.60;4.18;;;12.40;39.20;;;;;;5093615;28;20309;-61
2024/01/09 02:15:28;;;;;;;5.65;4.35;;;12.40;39.20;;;;;;5094345;28;20276;-61
2024/01/09 02:17:55;;;;;;;5.65;4.22;;;12.40;39.20;;;;;;5093849;28;20237;-60
2024/01/09 02:20:23;;;;;;;5.82;4.60;;;12.30;39.10;;;;;;5093951;28;20277;-60
2024/01/09 02:22:51;;;;;;;4.93;4.00;;;12.40;39.20;;;;;;5094172;28;20222;-61
2024/01/09 02:25:18;;;;;;;5.75;4.38;;;12.40;39.20;;;;;;5093755;28;20222;-62
2024/01/09 02:27:52;;;;;;;5.45;4.50;;;12.30;39.10;;;;;;5093643;28;20500;-61
2024/01/09 02:30:21;;;;;;;6.68;4.95;;;12.40;39.30;;;;;;5093727;28;20282;-62
2024/01/09 02:32:48;;;;;;;6.55;4.63;;;12.30;39.20;;;;;;5093273;28;20647;-62
2024/01/09 02:35:15;;;;;;;5.18;4.60;;;12.40;39.30;;;;;;5093961;28;20280;-61
2024/01/09 02:37:42;;;;;;;5.30;4.75;;;12.30;39.20;;;;;;5093722;28;20233;-62
2024/01/09 02:40:09;;;;;;;5.13;4.32;;;12.30;39.30;;;;;;5093525;28;20214;-61
2024/01/09 02:42:36;;;;;;;5.20;4.40;;;12.30;39.30;;;;;;5093505;28;20265;-61
2024/01/09 02:45:03;;;;;;;5.75;4.47;;;12.30;39.40;;;;;;5093425;28;20186;-62
2024/01/09 02:47:32;;;;;;;6.40;5.00;;;12.30;39.40;;;;;;5092969;28;20740;-61
2024/01/09 02:49:58;;;;;;;6.63;4.53;;;12.30;39.40;;;;;;5093668;28;20272;-62
2024/01/09 02:52:25;;;;;;;4.97;4.28;;;12.30;39.50;;;;;;5093362;28;20662;-62
2024/01/09 02:54:52;;;;;;;5.55;4.50;;;12.30;39.50;;;;;;5092078;28;20281;-60
2024/01/09 02:57:19;;;;;;;5.60;4.32;;;12.30;39.50;;;;;;5093432;28;20317;-61
2024/01/09 02:59:47;;;;;;;6.03;4.63;;;12.30;39.50;;;;;;5092810;28;20220;-62
2024/01/09 03:02:14;;;;;;;5.10;4.57;;;12.30;39.60;;;;;;5093032;28;20265;-61
2024/01/09 03:04:42;;;;;;;7.13;4.75;;;12.30;39.60;;;;;;5093504;28;20303;-61
2024/01/09 03:07:09;;;;;;;4.80;4.20;;;12.30;39.70;;;;;;5093238;28;20273;-61
2024/01/09 03:09:37;;;;;;;4.63;4.15;;;12.30;39.70;;;;;;5093080;28;20210;-62
2024/01/09 03:12:05;;;;;;;4.60;4.07;;;12.30;39.70;;;;;;5093182;28;20273;-61
2024/01/09 03:14:31;;;;;;;5.78;4.47;;;12.30;39.70;;;;;;5092512;28;20218;-61
2024/01/09 03:16:58;;;;;;;5.70;4.35;;;12.30;39.70;;;;;;5092796;28;20218;-60
2024/01/09 03:19:25;;;;;;;5.57;4.85;;;12.30;39.80;;;;;;5092998;28;20304;-61
2024/01/09 03:21:53;;;;;;;5.05;4.45;;;12.30;39.80;;;;;;5093109;28;20629;-61
2024/01/09 03:24:20;;;;;;;5.55;4.25;;;12.30;39.80;;;;;;5092848;28;20296;-61
2024/01/09 03:26:47;;;;;;;5.47;4.60;;;12.30;39.80;;;;;;5093080;28;20284;-61
2024/01/09 03:29:17;;;;;;;5.82;4.70;;;12.30;39.80;;;;;;5092467;28;20300;-62
2024/01/09 03:31:44;;;;;;;5.55;4.68;;;12.30;39.80;;;;;;5092455;28;20278;-62
2024/01/09 03:34:11;;;;;;;5.22;4.55;;;12.30;39.80;;;;;;5092857;28;20324;-62
2024/01/09 03:36:39;;;;;;;4.93;4.43;;;12.30;39.80;;;;;;5093074;28;20308;-62
2024/01/09 03:39:09;;;;;;;5.10;4.55;;;12.30;39.80;;;;;;5092610;28;20584;-62
2024/01/09 03:41:36;;;;;;;5.97;4.88;;;12.30;39.80;;;;;;5092771;28;20214;-62
2024/01/09 03:44:02;;;;;;;4.95;4.32;;;12.30;40.50;;;;;;5092075;28;20300;-61
2024/01/09 03:46:29;;;;;;;5.07;4.50;;;12.30;39.80;;;;;;5092285;28;20269;-61
2024/01/09 03:48:57;;;;;;;5.82;4.60;;;12.30;39.80;;;;;;5092245;28;20322;-62
2024/01/09 03:51:24;;;;;;;5.18;4.68;;;12.30;39.80;;;;;;5092522;28;20201;-62
2024/01/09 03:53:51;;;;;;;5.88;4.60;;;12.30;39.80;;;;;;5092171;28;20304;-61
2024/01/09 03:56:19;;;;;;;5.32;4.45;;;12.30;39.80;;;;;;5092465;28;20190;-61
2024/01/09 03:58:46;;;;;;;5.15;4.65;;;12.30;39.80;;;;;;5092133;28;20317;-62
2024/01/09 04:01:13;;;;;;;5.13;4.63;;;12.30;39.80;;;;;;5092244;28;20434;-61
2024/01/09 04:03:40;;;;;;;5.78;5.00;;;12.30;39.80;;;;;;5092399;28;20217;-61
2024/01/09 04:06:06;;;;;;;7.10;5.25;;;12.30;39.80;;;;;;5092280;28;20273;-62
2024/01/09 04:08:33;;;;;;;6.47;5.05;;;12.30;39.80;;;;;;5091881;28;20296;-62
2024/01/09 04:11:03;;;;;;;6.20;5.38;;;12.30;39.80;;;;;;5092314;28;20281;-61
2024/01/09 04:13:31;;;;;;;5.45;4.85;;;12.30;39.80;;;;;;5091733;28;20746;-60
2024/01/09 04:15:58;;;;;;;5.88;5.05;;;12.30;39.80;;;;;;5091834;28;20182;-61
2024/01/09 04:18:25;;;;;;;5.72;4.80;;;12.30;39.80;;;;;;5092180;28;20244;-61
2024/01/09 04:20:52;;;;;;;5.40;4.90;;;12.30;39.80;;;;;;5092301;28;20288;-61
2024/01/09 04:23:18;;;;;;;6.47;4.85;;;12.30;39.80;;;;;;5091929;28;20214;-61
2024/01/09 04:25:45;;;;;;;6.03;5.30;;;12.30;39.80;;;;;;5092284;28;20264;-62
2024/01/09 04:28:12;;;;;;;5.13;4.50;;;12.30;39.80;;;;;;5091283;28;20305;-61
2024/01/09 04:30:40;;;;;;;5.55;5.05;;;12.20;39.70;;;;;;5091543;28;20356;-62
2024/01/09 04:33:08;;;;;;;6.20;5.32;;;12.20;39.70;;;;;;5091898;28;20783;-62
2024/01/09 04:35:35;;;;;;;6.55;5.45;;;12.30;39.80;;;;;;5092104;28;20277;-62
2024/01/09 04:38:02;;;;;;;5.93;5.22;;;12.20;39.70;;;;;;5091749;28;20256;-61
2024/01/09 04:40:29;;;;;;;6.20;5.10;;;12.20;39.70;;;;;;5092119;28;20609;-62
2024/01/09 04:42:56;;;;;;;6.63;4.95;;;12.30;39.80;;;;;;5091274;28;20218;-62
2024/01/09 04:45:23;;;;;;;6.38;5.53;;;12.30;40.50;;;;;;5091884;28;20269;-61
2024/01/09 04:47:51;;;;;;;6.18;5.22;;;12.30;39.80;;;;;;5091700;28;20194;-61
2024/01/09 04:50:18;;;;;;;6.20;5.30;;;12.20;39.70;;;;;;5092113;28;20191;-62
2024/01/09 04:52:45;;;;;;;6.10;4.95;;;12.30;39.80;;;;;;5091705;28;20293;-61
2024/01/09 04:55:12;;;;;;;5.78;4.88;;;12.30;39.80;;;;;;5092027;28;20281;-62
2024/01/09 04:57:38;;;;;;;6.28;5.50;;;12.20;39.70;;;;;;5090837;28;20588;-61
2024/01/09 05:00:07;;;;;;;6.47;5.10;;;12.30;39.80;;;;;;5091334;28;20277;-62
2024/01/09 05:02:34;;;;;;;6.97;5.40;;;12.20;39.70;;;;;;5091852;28;20274;-61
2024/01/09 05:05:02;;;;;;;6.68;5.10;;;12.20;39.70;;;;;;5091951;28;20214;-61
2024/01/09 05:07:29;;;;;;;5.57;4.90;;;12.20;39.70;;;;;;5091299;28;20732;-61
2024/01/09 05:09:56;;;;;;;6.35;5.40;;;12.20;39.70;;;;;;5091494;28;20731;-61
2024/01/09 05:12:23;;;;;;;8.63;5.45;;;12.20;39.70;;;;;;5090656;28;20561;-62
2024/01/09 05:14:50;;;;;;;8.45;6.15;;;12.20;39.70;;;;;;5091437;28;20312;-62
2024/01/09 05:17:16;;;;;;;5.97;5.20;;;12.20;39.70;;;;;;5091710;28;20300;-61
2024/01/09 05:19:43;;;;;;;7.78;5.55;;;12.20;40.40;;;;;;5095190;28;20272;-61
2024/01/09 05:22:11;;;;;;;6.45;5.68;;;12.20;39.70;;;;;;5095018;28;20281;-62
2024/01/09 05:24:38;;;;;;;7.25;5.75;;;12.20;39.70;;;;;;5095400;28;20301;-62
2024/01/09 05:27:05;;;;;;;6.25;5.57;;;12.20;39.70;;;;;;5094664;28;20281;-61
2024/01/09 05:29:32;;;;;;;7.00;5.70;;;12.20;39.70;;;;;;5095065;28;20229;-61
2024/01/09 05:31:59;;;;;;;7.63;5.45;;;12.20;39.70;;;;;;5094743;28;20652;-61
2024/01/09 05:34:26;;;;;;;6.65;5.82;;;12.20;39.70;;;;;;5094948;28;20305;-61
2024/01/09 05:36:53;;;;;;;6.03;5.15;;;12.20;39.70;;;;;;5094332;28;20281;-61
2024/01/09 05:39:21;;;;;;;7.30;5.40;;;12.20;39.70;;;;;;5095018;28;20217;-61
2024/01/09 05:41:48;;;;;;;7.18;5.68;;;12.20;39.70;;;;;;5094309;28;20305;-61
2024/01/09 05:44:14;;;;;;;5.72;5.13;;;12.20;39.70;;;;;;5094678;28;20488;-61
2024/01/09 05:46:41;;;;;;;7.32;5.82;;;12.20;39.70;;;;;;5094862;28;20285;-62
2024/01/09 05:49:08;;;;;;;5.55;4.95;;;12.20;39.70;;;;;;5094674;28;20244;-61
2024/01/09 05:51:35;;;;;;;7.80;5.32;;;12.10;39.70;;;;;;5094721;28;20281;-61
2024/01/09 05:54:02;;;;;;;7.72;5.15;;;12.20;39.70;;;;;;5094547;28;20766;-62
2024/01/09 05:56:30;;;;;;;7.18;4.90;;;12.10;39.60;;;;;;5093982;28;20186;-61
2024/01/09 05:58:57;;;;;;;6.93;5.28;;;12.20;39.70;;;;;;5094023;28;20234;-61
2024/01/09 06:01:24;;;;;;;5.68;4.93;;;12.20;39.70;;;;;;5094657;28;20281;-61
2024/01/09 06:03:51;;;;;;;6.20;5.25;;;12.20;39.80;;;;;;5094553;28;20306;-61
2024/01/09 06:06:18;;;;;;;8.68;5.32;;;12.10;39.70;;;;;;5094223;28;20186;-60
2024/01/09 06:08:45;;;;;;;6.13;5.20;;;12.10;39.70;;;;;;5094580;28;20332;-62
2024/01/09 06:11:11;;;;;;;5.38;4.63;;;12.20;39.80;;;;;;5093898;28;20637;-61
2024/01/09 06:13:40;;;;;;;6.28;4.95;;;12.20;39.80;;;;;;5093593;28;20300;-61
2024/01/09 06:16:07;;;;;;;6.15;4.88;;;12.10;39.70;;;;;;5094653;28;20255;-62
2024/01/09 06:18:34;;;;;;;6.22;5.22;;;12.10;39.80;;;;;;5094157;28;20230;-61
2024/01/09 06:21:01;;;;;;;5.82;4.78;;;12.10;39.90;;;;;;5093783;28;20277;-60
2024/01/09 06:23:28;;;;;;;5.18;4.60;;;12.10;39.80;;;;;;5093695;28;20300;-61
2024/01/09 06:25:55;;;;;;;5.72;5.07;;;12.20;40.00;;;;;;5094126;28;20182;-61
2024/01/09 06:28:22;;;;;;;5.78;4.80;;;12.10;40.00;;;;;;5093065;28;20662;-60
2024/01/09 06:30:50;;;;;;;5.93;4.93;;;12.10;40.00;;;;;;5092279;28;20293;-61
2024/01/09 06:33:17;;;;;;;5.63;4.70;;;12.10;40.00;;;;;;5093917;28;20225;-61
2024/01/09 06:35:44;;;;;;;5.75;4.70;;;12.10;40.00;;;;;;5093921;28;20280;-61
2024/01/09 06:38:11;;;;;;;5.68;4.50;;;12.10;40.20;;;;;;5093776;28;20324;-61
2024/01/09 06:40:38;;;;;;;7.25;5.00;;;12.10;40.20;;;;;;5093855;28;20272;-61
2024/01/09 06:43:05;;;;;;;5.43;4.60;;;12.10;40.20;;;;;;5093056;28;20270;-61
2024/01/09 06:45:32;;;;;;;6.47;4.60;;;12.10;40.20;;;;;;5093162;28;20828;-61
2024/01/09 06:48:00;;;;;;;6.13;4.13;;;12.10;40.20;;;;;;5093117;28;20641;-61
2024/01/09 06:50:27;;;;;;;5.43;4.40;;;12.10;40.20;;;;;;5093688;28;20274;-61
2024/01/09 06:52:54;;;;;;;7.10;4.80;;;12.10;40.20;;;;;;5093074;28;20706;-61
2024/01/09 06:55:21;;;;;;;5.00;4.35;;;12.10;40.30;;;;;;5093288;28;20674;-62
2024/01/09 06:57:48;;;;;;;4.72;3.95;;;12.10;40.30;;;;;;5092683;28;20242;-62
2024/01/09 07:00:16;;;;;;;5.53;4.05;;;12.10;40.30;;;;;;5093164;28;20617;-61
2024/01/09 07:02:43;;;;;;;4.93;4.43;;;12.10;40.40;;;;;;5093097;28;20197;-61
2024/01/09 07:05:11;;;;;;;5.13;4.22;;;12.10;40.40;;;;;;5093324;28;20190;-61
2024/01/09 07:07:38;;;;;;;7.78;5.07;;;12.10;40.40;;;;;;5092963;28;20197;-61
2024/01/09 07:10:06;;;;;;;5.10;4.00;;;12.10;40.50;;;;;;5093424;28;20301;-60
2024/01/09 07:12:33;;;;;;;4.80;4.00;;;12.10;40.50;;;;;;5092477;28;20280;-60
2024/01/09 07:15:00;;;;;;;4.97;4.00;;;12.10;40.50;;;;;;5093098;28;20300;-61
2024/01/09 07:17:26;;;;;;;6.93;4.28;;;12.10;40.50;;;;;;5092682;28;20190;-61
2024/01/09 07:19:53;;;;;;;6.22;4.63;;;12.10;41.10;;;;;;5093015;28;20305;-61
2024/01/09 07:22:22;;;;;;;6.45;4.30;;;12.10;40.50;;;;;;5092737;28;20269;-61
2024/01/09 07:24:49;;;;;;;4.75;4.13;;;12.10;40.50;;;;;;5094577;28;20224;-59
2024/01/09 07:27:16;;;;;;;4.70;3.88;;;12.10;40.50;;;;;;5094634;28;20296;-60
2024/01/09 07:29:43;;;;;;;5.00;4.10;;;12.10;40.50;;;;;;5106109;28;20220;-60
2024/01/09 07:32:10;;;;;;;4.78;4.10;;;12.10;40.50;;;;;;5110468;28;20185;-61
2024/01/09 07:34:37;;;;;;;4.97;4.05;;;12.10;40.50;;;;;;5110656;27;20307;-61
2024/01/09 07:37:03;;;;;;;4.55;3.78;;;12.10;40.50;;;;;;5104661;28;20622;-60
2024/01/09 07:39:32;;;;;;;4.70;4.07;;;12.10;40.50;;;;;;5107655;27;20220;-60
2024/01/09 07:41:59;;;;;;;4.72;3.70;;;12.10;41.10;;;;;;5105860;28;20189;-61
2024/01/09 07:44:26;;;;;;;4.97;4.07;;;12.20;40.50;;;;;;5108598;28;20224;-62
2024/01/09 07:46:53;;;;;;;5.70;3.80;;;12.20;40.50;;;;;;5111513;28;20689;-61
2024/01/09 07:49:19;;;;;;;5.38;3.97;;;12.20;40.50;;;;;;5107985;27;20320;-61
2024/01/09 07:51:46;;;;;;;6.63;3.80;;;12.20;40.50;;;;;;5095439;28;20284;-60
2024/01/09 07:54:13;;;;;;;4.07;3.65;;;12.30;40.50;;;;;;5102328;27;20320;-61
2024/01/09 07:56:42;;;;;;;6.80;4.00;;;12.30;41.20;;;;;;5109083;28;20288;-60
2024/01/09 07:59:09;;;;;;;6.32;4.30;;;12.30;40.50;;;;;;5110237;28;20300;-61
2024/01/09 08:01:36;;;;;;;5.82;3.58;;;12.30;40.50;;;;;;5110835;28;21010;-61
2024/01/09 08:04:06;;;;;;;5.75;3.60;;;12.30;40.50;;;;;;5111639;28;20308;-61
2024/01/09 08:06:33;;;;;;;4.97;3.33;;;12.30;40.50;;;;;;5107728;28;20201;-61
2024/01/09 08:09:00;;;;;;;4.32;3.45;;;12.30;40.60;;;;;;5103619;28;20260;-62
2024/01/09 08:11:27;;;;;;;5.57;3.95;;;12.30;40.60;;;;;;5105352;28;20276;-61
2024/01/09 08:13:55;;;;;;;5.80;3.72;;;12.30;40.60;;;;;;5095765;28;20870;-59
2024/01/09 08:16:22;;;;;;;5.82;3.90;;;12.40;41.00;;;;;;5107372;28;20274;-59
2024/01/09 08:18:49;;;;;;;5.63;3.67;;;12.50;41.70;;;;;;5109999;28;20277;-61
2024/01/09 08:21:16;;;;;;;4.65;3.65;;;12.60;41.90;;;;;;5107196;28;20201;-61
2024/01/09 08:23:43;;;;;;;5.05;3.40;;;12.70;42.10;;;;;;5109513;28;20300;-60
2024/01/09 08:26:11;;;;;;;5.20;3.72;;;12.90;41.80;;;;;;5107882;28;20280;-61
2024/01/09 08:28:38;;;;;;;5.28;3.83;;;13.00;41.80;;;;;;5108426;28;20613;-60
2024/01/09 08:31:06;;;;;;;6.32;3.88;;;13.10;41.70;;;;;;5108036;28;20727;-61
2024/01/09 08:33:34;;;;;;;5.93;4.05;;;13.20;41.70;;;;;;5105966;28;20720;-61
2024/01/09 08:36:02;;;;;;;6.25;3.42;;;13.30;41.60;;;;;;5110294;28;20181;-61
2024/01/09 08:38:29;;;;;;;5.80;3.65;;;13.40;41.60;;;;;;5109104;28;20305;-61
2024/01/09 08:40:56;;;;;;;4.63;3.45;;;13.50;41.60;;;;;;5098172;28;20289;-61
2024/01/09 08:43:23;;;;;;;5.70;4.05;;;13.50;41.50;;;;;;5101211;28;20189;-61
2024/01/09 08:45:51;;;;;;;10.57;3.28;;;13.60;41.60;;;;;;5100549;28;20201;-62
2024/01/09 08:48:19;;;;;;;3.97;3.45;;;13.70;41.70;;;;;;5106185;28;20267;-60
2024/01/09 08:50:49;;;;;;;5.97;3.50;;;13.80;41.70;;;;;;5106287;28;20296;-61
2024/01/09 08:53:16;;;;;;;7.75;3.28;;;13.90;41.50;;;;;;5111832;28;20816;-61
2024/01/09 08:55:43;;;;;;;4.82;3.78;;;13.90;41.40;;;;;;5105851;28;20189;-60
2024/01/09 08:58:10;;;;;;;4.82;2.97;;;13.90;41.30;;;;;;5098125;28;20198;-60
2024/01/09 09:00:38;;;;;;;8.13;3.33;;;14.00;41.40;;;;;;5094017;28;20300;-61
2024/01/09 09:03:05;;;;;;;4.32;3.30;;;14.00;41.30;;;;;;5111895;28;20227;-59
2024/01/09 09:05:34;;;;;;;5.88;3.70;;;14.10;41.50;;;;;;5114476;28;20333;-60
2024/01/09 09:08:01;;;;;;;5.30;3.45;;;14.10;41.60;;;;;;5100698;28;20548;-61
2024/01/09 09:10:28;;;;;;;11.02;3.78;;;14.20;41.50;;;;;;5093496;28;20305;-62
2024/01/09 09:12:55;;;;;;;5.40;3.70;;;14.20;41.70;;;;;;5094445;28;20273;-60
2024/01/09 09:15:22;;;;;;;6.70;3.58;;;14.30;41.90;;;;;;5095205;28;20307;-61
2024/01/09 09:17:48;;;;;;;13.90;3.95;;;14.40;41.90;;;;;;5113020;28;20269;-61
2024/01/09 09:20:17;;;;;;;4.93;3.65;;;14.40;41.80;;;;;;5114505;28;20264;-59
2024/01/09 09:22:45;;;;;;;8.68;3.58;;;14.50;41.70;;;;;;5113175;28;20228;-59
2024/01/09 09:25:12;;;;;;;8.20;3.50;;;14.50;41.60;;;;;;5105254;28;20307;-59
2024/01/09 09:27:41;;;;;;;6.53;3.78;;;14.60;41.70;;;;;;5112555;28;20240;-59
2024/01/09 09:30:10;;;;;;;11.70;3.67;;;14.60;41.70;;;;;;5113576;28;20229;-59
2024/01/09 09:32:37;;;;;;;4.60;3.40;;;14.60;41.70;;;;;;5104057;27;20193;-59
2024/01/09 09:35:04;;;;;;;7.50;3.60;;;14.60;41.70;;;;;;5105107;28;20308;-59
2024/01/09 09:37:31;;;;;;;9.35;4.38;;;14.60;41.70;;;;;;5112109;27;20190;-60
2024/01/09 09:39:59;;;;;;;8.07;4.00;;;14.60;41.70;;;;;;5102330;27;20763;-59
2024/01/09 09:42:27;;;;;;;6.30;4.00;;;14.60;41.60;;;;;;5096554;28;20277;-60
2024/01/09 09:44:54;;;;;;;6.82;3.42;;;14.60;41.40;;;;;;5109389;27;20227;-60
2024/01/09 09:47:21;;;;;;;5.95;3.95;;;14.70;41.40;;;;;;5112987;27;20276;-59
2024/01/09 09:49:50;;;;;;;5.00;3.58;;;14.70;41.30;;;;;;5096884;28;20330;-59
2024/01/09 09:52:19;;;;;;;5.25;3.67;;;14.70;41.20;;;;;;5098339;28;20195;-59
2024/01/09 09:54:46;;;;;;;8.38;3.97;;;14.80;41.00;;;;;;5093482;28;20221;-60
2024/01/09 09:57:16;;;;;;;5.57;3.80;;;14.80;40.80;;;;;;5104487;27;20308;-60
2024/01/09 09:59:43;;;;;;;6.07;4.13;;;14.90;40.50;;;;;;5102998;28;20217;-60
2024/01/09 10:02:20;;;;;;;8.65;4.18;;;15.00;40.50;;;;;;5100702;27;20280;-60
2024/01/09 10:04:47;;;;;;;8.75;4.47;;;15.10;40.50;;;;;;5094061;28;20304;-57
2024/01/09 10:07:18;;;;;;;6.28;3.67;;;15.10;40.30;;;;;;5097074;27;20277;-56
2024/01/09 10:09:49;;;;;;;6.35;3.80;;;15.10;40.20;;;;;;5100447;28;20316;-55
2024/01/09 10:12:19;;;;;;;6.50;3.83;;;15.10;40.00;;;;;;5108019;28;21324;-58
2024/01/09 10:15:07;;;;;;;8.25;3.97;;;15.10;40.10;;;;;;5111151;28;20224;-58
2024/01/09 10:17:34;;;;;;;5.72;3.85;;;15.20;39.80;;;;;;5113359;28;20269;-58
2024/01/09 10:20:01;;;;;;;9.85;4.40;;;15.20;39.70;;;;;;5111305;28;20593;-58
2024/01/09 10:22:31;;;;;;;5.50;3.60;;;15.20;39.80;;;;;;5110702;27;20189;-59
2024/01/09 10:24:58;;;;;;;6.85;3.72;;;15.20;39.70;;;;;;5108620;28;20278;-58
2024/01/09 10:27:27;;;;;;;6.35;4.00;;;15.20;39.60;;;;;;5112750;27;20197;-58
2024/01/09 10:29:54;;;;;;;7.40;4.13;;;15.30;39.70;;;;;;5105973;28;20816;-58
2024/01/09 10:32:21;;;;;;;6.50;4.00;;;15.30;39.70;;;;;;5096656;27;20273;-58
2024/01/09 10:34:48;;;;;;;6.60;3.95;;;15.30;39.40;;;;;;5104145;27;20301;-58
2024/01/09 10:37:15;;;;;;;7.28;3.92;;;15.40;39.30;;;;;;5102599;28;20238;-59
2024/01/09 10:39:47;;;;;;;8.40;4.03;;;15.40;39.90;;;;;;5112339;28;20239;-58
2024/01/09 10:42:13;;;;;;;6.88;3.92;;;15.40;39.20;;;;;;5110475;28;20193;-58
2024/01/09 10:44:41;;;;;;;5.60;3.95;;;15.40;39.10;;;;;;5110635;27;20269;-55
2024/01/09 10:47:10;;;;;;;6.72;3.92;;;15.40;39.10;;;;;;5097314;28;20198;-59
2024/01/09 10:49:40;;;;;;;5.82;3.80;;;15.50;39.10;;;;;;5111202;28;20243;-59
2024/01/09 10:52:12;;;;;;;5.13;3.45;;;15.50;39.00;;;;;;5108657;28;20638;-59
2024/01/09 10:54:41;;;;;;;7.55;4.35;;;15.50;39.00;;;;;;5100745;28;20300;-58
2024/01/09 10:57:12;;;;;;;5.75;3.65;;;15.50;39.10;;;;;;5101407;28;20185;-56
2024/01/09 10:59:41;;;;;;;5.97;3.83;;;15.50;39.00;;;;;;5108685;28;20219;-58
2024/01/09 11:02:16;;;;;;;5.72;3.92;;;15.50;39.00;;;;;;5111044;28;20201;-58
2024/01/09 11:04:43;;;;;;;7.57;3.72;;;15.60;39.20;;;;;;5101591;28;20220;-59
2024/01/09 11:07:14;;;;;;;6.10;3.85;;;15.60;39.10;;;;;;5096545;28;20205;-58
2024/01/09 11:09:43;;;;;;;7.28;3.78;;;15.60;39.10;;;;;;5111468;28;20235;-60
2024/01/09 11:12:14;;;;;;;10.68;4.13;;;15.70;39.00;;;;;;5112761;28;20281;-60
2024/01/09 11:14:44;;;;;;;6.22;3.95;;;15.60;38.70;;;;;;5110805;28;20268;-57
2024/01/09 11:17:13;;;;;;;7.32;3.45;;;15.50;38.60;;;;;;5102973;28;20300;-59
2024/01/09 11:19:40;;;;;;;7.40;4.18;;;15.30;38.40;;;;;;5108951;28;20658;-55
2024/01/09 11:22:15;;;;;;;8.82;4.38;;;15.20;38.40;;;;;;5110493;28;20272;-57
2024/01/09 11:24:42;;;;;;;7.35;3.85;;;15.00;38.60;;;;;;5107168;28;20968;-58
2024/01/09 11:27:13;;;;;;;6.03;3.70;;;14.80;38.70;;;;;;5100929;28;20281;-57
2024/01/09 11:29:52;;;;;;;5.60;3.90;;;14.70;38.90;;;;;;5112195;28;20312;-58
2024/01/09 11:32:25;;;;;;;8.10;4.00;;;14.60;39.10;;;;;;5111402;28;20277;-57
2024/01/09 11:35:11;;;;;;;6.75;3.97;;;14.50;39.20;;;;;;5110879;28;20213;-58
2024/01/09 11:37:39;;;;;;;7.43;4.00;;;14.40;39.20;;;;;;5095899;28;20243;-56
2024/01/09 11:40:09;;;;;;;6.13;4.38;;;14.30;39.40;;;;;;5092653;28;20304;-58
2024/01/09 11:42:37;;;;;;;5.38;3.80;;;14.20;39.20;;;;;;5101975;28;20177;-59
2024/01/09 11:45:08;;;;;;;5.70;4.18;;;14.20;39.90;;;;;;5111220;28;20725;-58
2024/01/09 11:47:37;;;;;;;6.35;4.30;;;14.10;39.30;;;;;;5098254;28;20186;-59
2024/01/09 11:50:07;;;;;;;7.05;4.07;;;14.10;39.30;;;;;;5102098;28;20244;-56
2024/01/09 11:52:34;;;;;;;5.32;4.55;;;14.00;39.30;;;;;;5109603;28;20276;-58
2024/01/09 11:55:02;;;;;;;6.80;5.20;;;14.00;39.30;;;;;;5087215;28;20271;-58
2024/01/09 11:57:29;;;;;;;7.57;4.38;;;13.90;39.20;;;;;;5095432;28;20203;-59
2024/01/09 11:59:56;;;;;;;6.90;4.90;;;13.90;39.30;;;;;;5086222;28;20217;-59
2024/01/09 12:02:25;;;;;;;6.75;4.20;;;13.90;39.20;;;;;;5095935;28;20277;-58
2024/01/09 12:04:53;;;;;;;5.40;4.15;;;13.80;39.20;;;;;;5090188;28;20917;-58
2024/01/09 12:07:20;;;;;;;9.40;4.60;;;13.80;39.20;;;;;;5091264;28;20285;-59
2024/01/09 12:09:49;;;;;;;7.25;4.50;;;13.80;39.30;;;;;;5106706;28;20228;-59
2024/01/09 12:12:22;;;;;;;6.95;4.75;;;13.80;39.30;;;;;;5111817;28;20192;-58
2024/01/09 12:14:52;;;;;;;7.90;4.60;;;13.80;39.30;;;;;;5110875;28;20228;-59
2024/01/09 12:17:22;;;;;;;6.20;4.57;;;13.70;39.20;;;;;;5103384;28;20189;-55
2024/01/09 12:19:52;;;;;;;5.90;4.38;;;13.70;39.20;;;;;;5085839;28;20221;-59
2024/01/09 12:22:20;;;;;;;7.30;4.55;;;13.70;39.20;;;;;;5098889;28;20225;-58
2024/01/09 12:24:50;;;;;;;9.18;4.72;;;13.70;39.30;;;;;;5099187;28;20247;-58
2024/01/09 12:27:17;;;;;;;6.35;4.20;;;13.70;39.20;;;;;;5111536;28;20272;-57
2024/01/09 12:29:45;;;;;;;6.57;4.53;;;13.60;39.10;;;;;;5094752;27;20251;-58
2024/01/09 12:32:12;;;;;;;6.93;4.20;;;13.60;39.30;;;;;;5097955;28;20200;-53
2024/01/09 12:34:40;;;;;;;7.03;4.57;;;13.60;39.30;;;;;;5096178;28;20229;-57
2024/01/09 12:37:09;;;;;;;6.82;4.60;;;13.60;39.20;;;;;;5099309;28;20272;-59
2024/01/09 12:39:36;;;;;;;6.38;4.45;;;13.60;39.30;;;;;;5112133;28;20722;-59
2024/01/09 12:42:07;;;;;;;7.10;4.40;;;13.60;39.20;;;;;;5097525;28;20290;-58
2024/01/09 12:44:39;;;;;;;5.57;4.30;;;13.50;39.30;;;;;;5110616;28;20315;-57
2024/01/09 12:47:08;;;;;;;6.95;4.88;;;13.50;39.20;;;;;;5105000;28;20189;-58